Time;durP1;ratioP1;P1;durP2;ratioP2;P2;SDS_P1;SDS_P2;PMS_P1;PMS_P2;Temp;Humidity;BMP_temperature;BMP_pressure;BME280_temperature;BME280_humidity;BME280_pressure;Samples;Min_cycle;Max_cycle;Signal;HPM_P1;HPM_P2
2021/07/27 00:00:53;;;;;;;;;;;18.30;99.90;;;;;;5077026;28;20382;-61
2021/07/27 00:03:19;;;;;;;;;;;18.30;99.90;;;;;;5077356;28;19916;-62
2021/07/27 00:05:45;;;;;;;;;;;18.30;99.90;;;;;;5076541;28;19916;-62
2021/07/27 00:08:11;;;;;;;;;;;18.30;99.90;;;;;;5077044;28;20289;-63
2021/07/27 00:10:38;;;;;;;;;;;18.30;99.90;;;;;;5077238;28;19919;-63
2021/07/27 00:13:04;;;;;;;;;;;18.30;99.90;;;;;;5076958;28;19908;-62
2021/07/27 00:15:31;;;;;;;;;;;18.30;99.90;;;;;;5076423;28;19909;-62
2021/07/27 00:17:57;;;;;;;;;;;18.30;99.90;;;;;;5077401;28;19926;-62
2021/07/27 00:20:22;;;;;;;;;;;18.30;99.90;;;;;;5076828;28;19908;-62
2021/07/27 00:22:48;;;;;;;;;;;18.40;99.90;;;;;;5076325;28;19920;-61
2021/07/27 00:25:14;;;;;;;;;;;18.30;99.90;;;;;;5076768;28;20396;-62
2021/07/27 00:27:41;;;;;;;;;;;18.30;99.90;;;;;;5076712;28;19920;-62
2021/07/27 00:30:07;;;;;;;;;;;18.30;99.90;;;;;;5076973;28;20357;-62
2021/07/27 00:32:36;;;;;;;;;;;18.30;99.90;;;;;;5076396;28;20412;-63
2021/07/27 00:35:03;;;;;;;;;;;18.30;99.90;;;;;;5076359;28;20304;-62
2021/07/27 00:37:31;;;;;;;;;;;18.30;99.90;;;;;;5076048;28;19916;-62
2021/07/27 00:39:57;;;;;;;;;;;18.30;99.90;;;;;;5076159;28;19913;-62
2021/07/27 00:42:23;;;;;;;;;;;18.30;99.90;;;;;;5076529;28;19920;-62
2021/07/27 00:44:49;;;;;;;;;;;18.30;99.90;;;;;;5075853;28;19912;-61
2021/07/27 00:47:15;;;;;;;;;;;18.30;99.90;;;;;;5076864;28;19921;-63
2021/07/27 00:49:41;;;;;;;;;;;18.30;99.90;;;;;;5076228;28;19912;-62
2021/07/27 00:52:07;;;;;;;;;;;18.30;99.90;;;;;;5074834;28;19912;-62
2021/07/27 00:54:33;;;;;;;;;;;18.40;99.90;;;;;;5074483;28;19909;-63
2021/07/27 00:56:59;;;;;;;;;;;18.40;99.90;;;;;;5073988;28;19941;-61
2021/07/27 00:59:26;;;;;;;;;;;18.50;99.90;;;;;;5075017;28;19909;-62
2021/07/27 01:01:52;;;;;;;;;;;18.50;99.90;;;;;;5076211;28;20369;-62
2021/07/27 01:04:18;;;;;;;;;;;18.50;99.90;;;;;;5076258;28;19919;-62
2021/07/27 01:06:43;;;;;;;;;;;18.60;99.90;;;;;;5075549;28;19928;-62
2021/07/27 01:09:09;;;;;;;;;;;18.60;99.90;;;;;;5075896;28;19932;-62
2021/07/27 01:11:39;;;;;;;;;;;18.70;99.90;;;;;;5075709;28;20357;-63
2021/07/27 01:14:05;;;;;;;;;;;18.70;99.90;;;;;;5075238;28;19908;-62
2021/07/27 01:16:34;;;;;;;;;;;18.70;99.90;;;;;;5075535;28;19908;-62
2021/07/27 01:38:16;;;;;;;;;;;18.50;99.90;;;;;;5076110;28;19913;-62
2021/07/27 01:43:20;;;;;;;;;;;18.50;99.90;;;;;;5075374;28;19931;-62
2021/07/27 01:45:46;;;;;;;;;;;18.50;99.90;;;;;;5074286;28;19920;-62
2021/07/27 01:48:13;;;;;;;;;;;18.60;99.90;;;;;;5074509;28;19916;-63
2021/07/27 01:50:40;;;;;;;;;;;18.60;99.90;;;;;;5073861;28;19913;-62
2021/07/27 01:53:06;;;;;;;;;;;18.70;99.90;;;;;;5075023;28;19913;-62
2021/07/27 01:55:35;;;;;;;;;;;18.60;99.90;;;;;;5074401;28;19947;-63
2021/07/27 01:58:01;;;;;;;;;;;18.60;99.90;;;;;;5074378;28;19913;-62
2021/07/27 02:00:27;;;;;;;;;;;18.60;99.90;;;;;;5073372;28;19912;-62
2021/07/27 02:02:53;;;;;;;;;;;18.60;99.90;;;;;;5074980;28;19916;-63
2021/07/27 02:05:19;;;;;;;;;;;18.60;99.90;;;;;;5074945;28;19935;-62
2021/07/27 02:07:56;;;;;;;;;;;18.70;99.90;;;;;;5074707;28;19946;-63
2021/07/27 02:10:23;;;;;;;;;;;18.70;99.90;;;;;;5073893;28;19908;-63
2021/07/27 02:12:51;;;;;;;;;;;18.70;99.90;;;;;;5075005;28;20345;-62
2021/07/27 02:15:17;;;;;;;;;;;18.70;99.90;;;;;;5074874;28;19913;-63
2021/07/27 02:17:44;;;;;;;;;;;18.70;99.90;;;;;;5074961;28;19909;-63
2021/07/27 02:20:10;;;;;;;;;;;18.70;99.90;;;;;;5074827;28;19915;-63
2021/07/27 02:22:36;;;;;;;;;;;18.60;99.90;;;;;;5074267;28;19913;-62
2021/07/27 02:25:02;;;;;;;;;;;18.60;99.90;;;;;;5074282;28;19912;-63
2021/07/27 02:27:28;;;;;;;;;;;18.60;99.90;;;;;;5074377;28;20320;-63
2021/07/27 02:29:54;;;;;;;;;;;18.50;99.90;;;;;;5073896;28;19908;-62
2021/07/27 02:32:20;;;;;;;;;;;18.50;99.90;;;;;;5072733;28;19908;-63
2021/07/27 02:34:46;;;;;;;;;;;18.50;99.90;;;;;;5074306;28;19908;-62
2021/07/27 02:37:14;;;;;;;;;;;18.50;99.90;;;;;;5074494;28;19913;-62
2021/07/27 02:39:40;;;;;;;;;;;18.50;99.90;;;;;;5074209;28;19924;-61
2021/07/27 02:42:06;;;;;;;;;;;18.50;99.90;;;;;;5072816;28;20381;-62
2021/07/27 02:44:32;;;;;;;;;;;18.50;99.90;;;;;;5074197;28;19945;-62
2021/07/27 02:47:01;;;;;;;;;;;18.50;99.90;;;;;;5074038;28;19921;-63
2021/07/27 02:49:26;;;;;;;;;;;18.50;99.90;;;;;;5074726;28;19908;-62
2021/07/27 02:51:52;;;;;;;;;;;18.50;99.90;;;;;;5074056;28;19920;-63
2021/07/27 02:54:18;;;;;;;;;;;18.50;99.90;;;;;;5073840;28;20285;-62
2021/07/27 02:56:45;;;;;;;;;;;18.60;99.90;;;;;;5073880;28;19919;-62
2021/07/27 02:59:10;;;;;;;;;;;18.60;99.90;;;;;;5074268;28;19915;-62
2021/07/27 03:01:36;;;;;;;;;;;18.60;99.90;;;;;;5073542;28;19908;-63
2021/07/27 03:04:02;;;;;;;;;;;18.50;99.90;;;;;;5072753;28;19912;-63
2021/07/27 03:06:28;;;;;;;;;;;18.60;99.90;;;;;;5073423;28;19971;-62
2021/07/27 03:11:20;;;;;;;;;;;18.60;99.90;;;;;;5073559;28;20011;-62
2021/07/27 03:13:46;;;;;;;;;;;18.60;99.90;;;;;;5073365;28;20265;-62
2021/07/27 03:16:30;;;;;;;;;;;18.70;99.90;;;;;;5073268;28;19916;-61
2021/07/27 03:18:56;;;;;;;;;;;18.70;99.90;;;;;;5072642;28;19917;-62
2021/07/27 03:21:26;;;;;;;;;;;18.80;99.90;;;;;;5073202;28;19921;-61
2021/07/27 03:23:52;;;;;;;;;;;18.80;99.90;;;;;;5077365;28;20361;-62
2021/07/27 03:26:19;;;;;;;;;;;18.80;99.90;;;;;;5078135;28;20257;-63
2021/07/27 03:28:45;;;;;;;;;;;18.80;99.90;;;;;;5077868;28;19912;-62
2021/07/27 03:31:11;;;;;;;;;;;18.80;99.90;;;;;;5077637;28;20277;-63
2021/07/27 03:33:37;;;;;;;;;;;18.80;99.90;;;;;;5077502;28;19959;-64
2021/07/27 03:36:04;;;;;;;;;;;18.80;99.90;;;;;;5077490;28;19912;-62
2021/07/27 03:38:30;;;;;;;;;;;18.90;99.90;;;;;;5078325;28;19912;-62
2021/07/27 03:41:09;;;;;;;;;;;18.90;99.90;;;;;;5077749;28;19913;-62
2021/07/27 03:43:35;;;;;;;;;;;18.90;99.90;;;;;;5077104;28;20369;-62
2021/07/27 03:46:04;;;;;;;;;;;18.90;99.90;;;;;;5077532;28;19916;-62
2021/07/27 03:48:30;;;;;;;;;;;19.00;99.90;;;;;;5077702;28;20408;-62
2021/07/27 03:50:56;;;;;;;;;;;19.00;99.90;;;;;;5077723;28;19908;-63
2021/07/27 03:53:22;;;;;;;;;;;19.00;99.90;;;;;;5077616;28;19908;-62
2021/07/27 03:55:48;;;;;;;;;;;19.10;99.90;;;;;;5077330;28;20399;-63
2021/07/27 03:58:14;;;;;;;;;;;19.10;99.90;;;;;;5077058;28;19916;-63
2021/07/27 04:00:40;;;;;;;;;;;19.10;99.90;;;;;;5077606;28;19916;-62
2021/07/27 04:03:06;;;;;;;;;;;19.10;99.90;;;;;;5058917;28;19915;-62
2021/07/27 04:05:35;;;;;;;;;;;19.10;99.90;;;;;;5077668;28;19912;-62
2021/07/27 04:08:01;;;;;;;;;;;19.10;99.90;;;;;;5076465;28;19927;-62
2021/07/27 04:10:27;;;;;;;;;;;19.20;99.90;;;;;;5076961;28;19916;-63
2021/07/27 04:12:53;;;;;;;;;;;19.20;99.90;;;;;;5076724;28;19920;-62
2021/07/27 04:15:26;;;;;;;;;;;19.20;99.90;;;;;;5077213;28;19919;-62
2021/07/27 04:17:52;;;;;;;;;;;19.20;99.90;;;;;;5077407;28;19916;-62
2021/07/27 04:20:18;;;;;;;;;;;19.20;99.90;;;;;;5076573;28;19917;-62
2021/07/27 04:22:44;;;;;;;;;;;19.20;99.90;;;;;;5076360;28;19939;-61
2021/07/27 04:25:09;;;;;;;;;;;19.20;99.90;;;;;;5076882;28;20296;-62
2021/07/27 04:27:35;;;;;;;;;;;19.20;99.90;;;;;;5076608;28;20011;-62
2021/07/27 04:30:01;;;;;;;;;;;19.20;99.90;;;;;;5077113;28;19912;-62
2021/07/27 04:32:29;;;;;;;;;;;19.20;99.90;;;;;;5076698;28;20385;-62
2021/07/27 04:34:55;;;;;;;;;;;19.20;99.90;;;;;;5076518;28;19920;-63
2021/07/27 04:37:21;;;;;;;;;;;19.20;99.90;;;;;;5076249;28;19913;-61
2021/07/27 04:39:53;;;;;;;;;;;19.20;99.90;;;;;;5076032;28;20389;-62
2021/07/27 04:42:19;;;;;;;;;;;19.20;99.90;;;;;;5076607;28;20365;-62
2021/07/27 04:44:45;;;;;;;;;;;19.20;99.90;;;;;;5076200;28;19908;-62
2021/07/27 04:47:12;;;;;;;;;;;19.20;99.90;;;;;;5073939;28;21333;-64
2021/07/27 04:49:38;;;;;;;;;;;19.20;99.90;;;;;;5076403;28;19913;-62
2021/07/27 04:52:04;;;;;;;;;;;19.20;99.90;;;;;;5074949;28;19913;-62
2021/07/27 04:54:41;;;;;;;;;;;19.30;99.90;;;;;;5075813;28;19912;-62
2021/07/27 04:57:08;;;;;;;;;;;19.30;99.90;;;;;;5076550;28;20269;-62
2021/07/27 04:59:34;;;;;;;;;;;19.30;99.90;;;;;;5076505;28;19909;-63
2021/07/27 05:02:00;;;;;;;;;;;19.30;99.90;;;;;;5075623;28;19913;-63
2021/07/27 05:04:26;;;;;;;;;;;19.30;99.90;;;;;;5075627;28;19913;-62
2021/07/27 05:06:52;;;;;;;;;;;19.30;99.90;;;;;;5074369;28;19931;-62
2021/07/27 05:09:18;;;;;;;;;;;19.30;99.90;;;;;;5076232;28;19935;-62
2021/07/27 05:11:44;;;;;;;;;;;19.30;99.90;;;;;;5075517;28;19912;-62
2021/07/27 05:14:10;;;;;;;;;;;19.40;99.90;;;;;;5075947;28;19912;-62
2021/07/27 05:16:36;;;;;;;;;;;19.40;99.90;;;;;;5075303;28;19913;-62
2021/07/27 05:19:01;;;;;;;;;;;19.50;99.90;;;;;;5076131;28;19912;-62
2021/07/27 05:21:27;;;;;;;;;;;19.50;99.90;;;;;;5075258;28;20280;-63
2021/07/27 05:23:55;;;;;;;;;;;19.50;99.90;;;;;;5075217;28;19913;-62
2021/07/27 05:26:21;;;;;;;;;;;19.60;99.90;;;;;;5076030;28;19912;-62
2021/07/27 05:28:47;;;;;;;;;;;19.60;99.90;;;;;;5075068;28;20288;-62
2021/07/27 05:31:13;;;;;;;;;;;19.50;99.90;;;;;;5074998;28;19966;-62
2021/07/27 05:33:39;;;;;;;;;;;19.50;99.90;;;;;;5075140;28;19919;-63
2021/07/27 05:36:06;;;;;;;;;;;19.50;99.90;;;;;;5075344;28;19920;-63
2021/07/27 05:38:31;;;;;;;;;;;19.60;99.90;;;;;;5075359;28;19916;-63
2021/07/27 05:40:57;;;;;;;;;;;19.60;99.90;;;;;;5075179;28;19916;-61
2021/07/27 05:43:23;;;;;;;;;;;19.60;99.90;;;;;;5074704;28;19924;-62
2021/07/27 05:45:49;;;;;;;;;;;19.60;99.90;;;;;;5075491;28;20238;-61
2021/07/27 05:48:15;;;;;;;;;;;19.70;99.90;;;;;;5074916;28;19916;-62
2021/07/27 05:50:41;;;;;;;;;;;19.80;99.90;;;;;;5075216;28;19913;-63
2021/07/27 05:53:07;;;;;;;;;;;19.80;99.90;;;;;;5075117;28;20281;-62
2021/07/27 05:55:33;;;;;;;;;;;19.80;99.90;;;;;;5075422;28;19919;-62
2021/07/27 05:57:59;;;;;;;;;;;19.90;99.90;;;;;;5075774;28;19913;-62
2021/07/27 06:00:25;;;;;;;;;;;20.00;99.90;;;;;;5074473;28;19913;-63
2021/07/27 06:02:51;;;;;;;;;;;20.00;99.90;;;;;;5074690;28;19912;-63
2021/07/27 06:05:17;;;;;;;;;;;20.10;99.90;;;;;;5074369;28;19913;-62
2021/07/27 06:07:43;;;;;;;;;;;20.20;99.90;;;;;;5073621;28;19920;-63
2021/07/27 06:10:09;;;;;;;;;;;20.20;99.90;;;;;;5075028;28;19917;-62
2021/07/27 06:12:35;;;;;;;;;;;20.40;99.90;;;;;;5074186;28;19920;-62
2021/07/27 06:15:01;;;;;;;;;;;20.60;99.90;;;;;;5074143;28;19919;-61
2021/07/27 06:17:27;;;;;;;;;;;20.70;99.90;;;;;;5074106;28;20281;-62
2021/07/27 06:19:53;;;;;;;;;;;20.80;99.90;;;;;;5074060;28;19913;-62
2021/07/27 06:22:19;;;;;;;;;;;20.80;99.90;;;;;;5074601;28;19916;-62
2021/07/27 06:24:45;;;;;;;;;;;20.90;99.90;;;;;;5073968;28;19943;-63
2021/07/27 06:27:10;;;;;;;;;;;20.80;99.90;;;;;;5074447;28;19921;-62
2021/07/27 06:29:36;;;;;;;;;;;20.80;99.90;;;;;;5074720;28;19913;-63
2021/07/27 06:32:02;;;;;;;;;;;20.70;99.90;;;;;;5074360;28;19912;-64
2021/07/27 06:34:28;;;;;;;;;;;20.70;99.90;;;;;;5074555;28;19923;-63
2021/07/27 06:36:54;;;;;;;;;;;20.70;99.90;;;;;;5074118;28;19920;-63
2021/07/27 06:39:20;;;;;;;;;;;20.60;99.90;;;;;;5073769;28;19916;-62
2021/07/27 06:41:46;;;;;;;;;;;20.50;99.90;;;;;;5073535;28;20357;-62
2021/07/27 06:44:12;;;;;;;;;;;20.50;99.90;;;;;;5074486;28;19923;-62
2021/07/27 06:46:38;;;;;;;;;;;20.50;99.90;;;;;;5073501;28;19920;-62
2021/07/27 06:49:04;;;;;;;;;;;20.60;99.90;;;;;;5074468;28;19931;-62
2021/07/27 06:51:30;;;;;;;;;;;20.90;99.90;;;;;;5073857;28;19908;-63
2021/07/27 06:53:56;;;;;;;;;;;20.90;99.90;;;;;;5074082;28;20310;-63
2021/07/27 06:56:22;;;;;;;;;;;20.90;99.90;;;;;;5074093;28;19912;-63
2021/07/27 06:58:48;;;;;;;;;;;21.00;99.90;;;;;;5073318;28;19917;-61
2021/07/27 07:01:14;;;;;;;;;;;21.00;99.90;;;;;;5073466;28;19926;-62
2021/07/27 07:03:40;;;;;;;;;;;21.10;99.90;;;;;;5074529;28;19908;-62
2021/07/27 07:06:06;;;;;;;;;;;21.20;99.90;;;;;;5072538;28;19936;-61
2021/07/27 07:08:32;;;;;;;;;;;21.30;99.90;;;;;;5073386;28;19932;-63
2021/07/27 07:10:59;;;;;;;;;;;21.30;99.90;;;;;;5073669;28;19912;-61
2021/07/27 07:13:25;;;;;;;;;;;21.30;99.90;;;;;;5073657;28;19909;-61
2021/07/27 07:15:52;;;;;;;;;;;21.40;99.90;;;;;;5073903;28;19999;-62
2021/07/27 07:18:18;;;;;;;;;;;21.50;99.90;;;;;;5074035;28;20384;-61
2021/07/27 07:20:44;;;;;;;;;;;21.60;99.90;;;;;;5073634;28;19920;-62
2021/07/27 07:23:10;;;;;;;;;;;21.60;99.90;;;;;;5074386;28;19939;-63
2021/07/27 07:25:46;;;;;;;;;;;21.60;99.90;;;;;;5073592;28;19912;-62
2021/07/27 07:28:12;;;;;;;;;;;21.60;99.90;;;;;;5073692;28;19920;-62
2021/07/27 07:30:38;;;;;;;;;;;21.50;99.90;;;;;;5073635;28;20298;-62
2021/07/27 07:33:04;;;;;;;;;;;21.40;99.90;;;;;;5073383;28;19913;-62
2021/07/27 07:35:30;;;;;;;;;;;21.40;99.90;;;;;;5073171;28;20379;-62
2021/07/27 07:37:56;;;;;;;;;;;21.40;99.90;;;;;;5073235;28;19912;-62
2021/07/27 07:40:22;;;;;;;;;;;21.30;99.90;;;;;;5073600;28;19954;-61
2021/07/27 07:42:48;;;;;;;;;;;21.30;99.90;;;;;;5071759;28;20395;-61
2021/07/27 07:45:14;;;;;;;;;;;21.20;99.90;;;;;;5073975;28;19912;-60
2021/07/27 07:47:42;;;;;;;;;;;21.20;99.90;;;;;;5071992;28;19924;-62
2021/07/27 07:50:09;;;;;;;;;;;21.30;99.90;;;;;;5073213;28;19917;-62
2021/07/27 07:52:35;;;;;;;;;;;21.40;99.90;;;;;;5073281;28;20277;-62
2021/07/27 07:55:04;;;;;;;;;;;21.50;99.90;;;;;;5073278;28;19913;-62
2021/07/27 07:57:31;;;;;;;;;;;21.60;99.90;;;;;;5073323;28;19912;-62
2021/07/27 07:59:59;;;;;;;;;;;21.80;99.90;;;;;;5072763;28;19919;-62
2021/07/27 08:02:24;;;;;;;;;;;21.90;99.90;;;;;;5073641;28;20338;-62
2021/07/27 08:04:50;;;;;;;;;;;22.00;99.90;;;;;;5073131;28;19919;-62
2021/07/27 08:07:17;;;;;;;;;;;22.20;99.90;;;;;;5073113;28;19935;-62
2021/07/27 08:09:43;;;;;;;;;;;22.40;99.90;;;;;;5076079;28;19912;-62
2021/07/27 08:12:09;;;;;;;;;;;22.70;99.90;;;;;;5077094;28;19916;-62
2021/07/27 08:14:34;;;;;;;;;;;23.00;99.90;;;;;;5076438;28;19913;-62
2021/07/27 08:17:01;;;;;;;;;;;23.00;99.90;;;;;;5076454;28;19913;-63
2021/07/27 08:19:27;;;;;;;;;;;23.30;99.90;;;;;;5077064;28;19913;-62
2021/07/27 08:21:53;;;;;;;;;;;23.60;99.90;;;;;;5076285;28;20330;-63
2021/07/27 08:24:19;;;;;;;;;;;23.80;99.90;;;;;;5077017;28;19924;-62
2021/07/27 08:26:45;;;;;;;;;;;23.80;99.90;;;;;;5077011;28;19920;-62
2021/07/27 08:29:10;;;;;;;;;;;23.50;99.90;;;;;;5076232;28;19921;-62
2021/07/27 08:31:36;;;;;;;;;;;23.30;99.90;;;;;;5076414;28;20254;-62
2021/07/27 08:34:02;;;;;;;;;;;23.40;99.90;;;;;;5076314;28;19912;-62
2021/07/27 08:36:28;;;;;;;;;;;23.70;99.90;;;;;;5076922;28;19920;-60
2021/07/27 08:38:54;;;;;;;;;;;24.10;99.90;;;;;;5076084;28;19912;-62
2021/07/27 08:41:20;;;;;;;;;;;24.60;99.90;;;;;;5076625;28;19912;-62
2021/07/27 08:43:46;;;;;;;;;;;24.60;99.90;;;;;;5075577;28;19935;-61
2021/07/27 08:46:17;;;;;;;;;;;24.10;99.90;;;;;;5076828;28;19920;-61
2021/07/27 08:48:44;;;;;;;;;;;24.00;99.90;;;;;;5076091;28;19928;-61
2021/07/27 08:51:10;;;;;;;;;;;23.80;99.90;;;;;;5076303;28;19908;-62
2021/07/27 08:53:36;;;;;;;;;;;23.80;99.90;;;;;;5075441;28;19915;-63
2021/07/27 08:56:02;;;;;;;;;;;23.60;99.90;;;;;;5075965;28;20308;-61
2021/07/27 08:58:28;;;;;;;;;;;23.60;99.90;;;;;;5076478;28;20272;-62
2021/07/27 09:00:54;;;;;;;;;;;23.40;99.90;;;;;;5076229;28;19912;-61
2021/07/27 09:03:21;;;;;;;;;;;23.20;99.90;;;;;;5076415;28;19913;-62
2021/07/27 09:05:47;;;;;;;;;;;23.10;99.90;;;;;;5075173;28;19916;-62
2021/07/27 09:08:15;;;;;;;;;;;23.00;99.90;;;;;;5075919;28;19980;-62
2021/07/27 09:10:41;;;;;;;;;;;23.00;99.90;;;;;;5075928;28;19909;-62
2021/07/27 09:13:10;;;;;;;;;;;23.00;99.90;;;;;;5075644;28;19909;-62
2021/07/27 09:15:38;;;;;;;;;;;23.10;99.90;;;;;;5075597;28;19912;-61
2021/07/27 09:18:04;;;;;;;;;;;22.90;99.90;;;;;;5075257;28;20272;-62
2021/07/27 09:20:48;;;;;;;;;;;22.90;99.90;;;;;;5074812;28;19913;-61
2021/07/27 09:23:18;;;;;;;;;;;23.00;99.90;;;;;;5075833;28;20353;-61
2021/07/27 09:25:44;;;;;;;;;;;23.00;99.90;;;;;;5075221;28;20389;-62
2021/07/27 09:28:10;;;;;;;;;;;23.00;99.90;;;;;;5073818;28;19916;-60
2021/07/27 09:30:37;;;;;;;;;;;23.10;99.90;;;;;;5075299;28;19948;-61
2021/07/27 09:33:06;;;;;;;;;;;23.00;99.90;;;;;;5075211;28;19919;-61
2021/07/27 09:35:32;;;;;;;;;;;23.00;99.90;;;;;;5074990;28;19915;-61
2021/07/27 09:38:04;;;;;;;;;;;22.90;99.90;;;;;;5073976;28;19916;-62
2021/07/27 09:40:30;;;;;;;;;;;22.80;99.90;;;;;;5074849;28;19916;-62
2021/07/27 09:42:56;;;;;;;;;;;22.70;99.90;;;;;;5074835;28;19921;-62
2021/07/27 09:45:23;;;;;;;;;;;22.80;99.90;;;;;;5075449;28;19908;-62
2021/07/27 09:47:49;;;;;;;;;;;22.80;99.90;;;;;;5073556;28;19929;-62
2021/07/27 09:50:15;;;;;;;;;;;22.90;99.90;;;;;;5074742;28;19915;-62
2021/07/27 09:52:42;;;;;;;;;;;23.00;99.90;;;;;;5074652;28;19909;-62
2021/07/27 09:55:10;;;;;;;;;;;23.10;99.90;;;;;;5075666;28;19919;-62
2021/07/27 09:57:36;;;;;;;;;;;23.50;99.90;;;;;;5075226;28;19908;-61
2021/07/27 10:00:02;;;;;;;;;;;24.20;99.90;;;;;;5074368;28;20327;-61
2021/07/27 10:02:27;;;;;;;;;;;24.80;99.90;;;;;;5073538;28;19987;-61
2021/07/27 10:04:55;;;;;;;;;;;25.40;99.90;;;;;;5074374;28;19915;-61
2021/07/27 10:07:28;;;;;;;;;;;25.60;99.90;;;;;;5073150;28;19917;-60
2021/07/27 10:10:03;;;;;;;;;;;25.50;99.90;;;;;;5073018;28;19931;-61
2021/07/27 10:12:32;;;;;;;;;;;25.30;99.80;;;;;;5073941;28;19916;-61
2021/07/27 10:15:07;;;;;;;;;;;25.40;99.90;;;;;;5074990;28;19908;-61
2021/07/27 10:17:33;;;;;;;;;;;25.50;99.80;;;;;;5074746;28;19915;-61
2021/07/27 10:20:00;;;;;;;;;;;25.30;98.90;;;;;;5074169;28;19912;-61
2021/07/27 10:22:30;;;;;;;;;;;25.00;98.20;;;;;;5073402;28;19912;-61
2021/07/27 10:24:56;;;;;;;;;;;24.60;98.80;;;;;;5074594;28;19909;-61
2021/07/27 10:27:23;;;;;;;;;;;24.30;99.50;;;;;;5073940;28;19909;-61
2021/07/27 10:29:49;;;;;;;;;;;24.10;99.90;;;;;;5074459;28;19930;-61
2021/07/27 10:32:18;;;;;;;;;;;24.10;99.90;;;;;;5074025;28;19920;-61
2021/07/27 10:34:44;;;;;;;;;;;24.30;99.90;;;;;;5074488;28;19915;-62
2021/07/27 10:37:11;;;;;;;;;;;24.50;99.90;;;;;;5074088;28;19916;-61
2021/07/27 10:39:48;;;;;;;;;;;24.70;99.40;;;;;;5074145;28;19967;-62
2021/07/27 10:42:14;;;;;;;;;;;25.50;98.90;;;;;;5073719;28;19928;-62
2021/07/27 10:44:39;;;;;;;;;;;26.20;97.30;;;;;;5074805;28;19912;-63
2021/07/27 10:47:05;;;;;;;;;;;27.00;95.80;;;;;;5073910;28;20262;-62
2021/07/27 10:49:31;;;;;;;;;;;27.50;92.60;;;;;;5072810;28;19951;-63
2021/07/27 10:52:01;;;;;;;;;;;27.30;92.40;;;;;;5073869;28;19920;-61
2021/07/27 10:54:33;;;;;;;;;;;27.00;93.30;;;;;;5073620;28;19908;-61
2021/07/27 10:57:00;;;;;;;;;;;26.20;93.00;;;;;;5074003;28;19912;-62
2021/07/27 10:59:26;;;;;;;;;;;26.50;94.50;;;;;;5073548;28;19912;-61
2021/07/27 11:01:55;;;;;;;;;;;26.90;93.20;;;;;;5072570;28;19908;-61
2021/07/27 11:04:25;;;;;;;;;;;27.50;91.50;;;;;;5072507;28;20365;-62
2021/07/27 11:06:51;;;;;;;;;;;27.90;90.60;;;;;;5074032;28;19924;-62
2021/07/27 11:09:17;;;;;;;;;;;28.50;90.00;;;;;;5073277;28;20297;-61
2021/07/27 11:11:44;;;;;;;;;;;28.70;86.60;;;;;;5074197;28;19912;-62
2021/07/27 11:14:17;;;;;;;;;;;28.60;86.10;;;;;;5072180;28;19919;-61
2021/07/27 11:16:42;;;;;;;;;;;27.90;86.60;;;;;;5074085;28;20222;-61
2021/07/27 11:19:09;;;;;;;;;;;27.60;88.40;;;;;;5072597;28;19916;-61
2021/07/27 11:21:35;;;;;;;;;;;26.90;89.80;;;;;;5073541;28;19920;-61
2021/07/27 11:24:01;;;;;;;;;;;26.50;90.40;;;;;;5072614;28;19908;-61
2021/07/27 11:26:36;;;;;;;;;;;26.20;91.60;;;;;;5073131;28;19909;-61
2021/07/27 11:29:09;;;;;;;;;;;25.80;92.00;;;;;;5071884;28;20419;-61
2021/07/27 11:31:43;;;;;;;;;;;25.60;91.70;;;;;;5073211;28;20255;-61
2021/07/27 11:34:09;;;;;;;;;;;25.30;92.10;;;;;;5074055;28;19913;-61
2021/07/27 11:36:35;;;;;;;;;;;24.80;93.00;;;;;;5073324;28;19924;-61
2021/07/27 11:39:07;;;;;;;;;;;24.80;93.80;;;;;;5074185;28;20314;-61
2021/07/27 11:41:33;;;;;;;;;;;25.10;93.60;;;;;;5072929;28;19916;-60
2021/07/27 11:43:59;;;;;;;;;;;25.90;93.10;;;;;;5075594;28;19913;-61
2021/07/27 11:46:31;;;;;;;;;;;26.90;91.80;;;;;;5076662;28;19916;-61
2021/07/27 11:48:57;;;;;;;;;;;26.80;90.10;;;;;;5075412;28;19916;-61
2021/07/27 11:51:49;;;;;;;;;;;26.70;91.00;;;;;;5076871;28;19920;-61
2021/07/27 11:54:25;;;;;;;;;;;27.10;90.00;;;;;;5074765;28;20281;-61
2021/07/27 11:56:51;;;;;;;;;;;26.90;88.90;;;;;;5076778;28;19919;-62
2021/07/27 11:59:23;;;;;;;;;;;27.00;89.00;;;;;;5077493;28;19916;-61
2021/07/27 12:01:49;;;;;;;;;;;26.60;88.10;;;;;;5076759;28;19916;-61
2021/07/27 12:04:15;;;;;;;;;;;26.60;89.80;;;;;;5076675;28;19912;-61
2021/07/27 12:07:00;;;;;;;;;;;26.50;89.40;;;;;;5076914;28;20381;-62
2021/07/27 12:09:28;;;;;;;;;;;26.70;89.40;;;;;;5078144;28;19928;-62
2021/07/27 12:11:54;;;;;;;;;;;26.70;90.20;;;;;;5076512;28;19912;-62
2021/07/27 12:14:20;;;;;;;;;;;26.40;89.30;;;;;;5076472;28;20281;-62
2021/07/27 12:16:47;;;;;;;;;;;26.30;90.10;;;;;;5076708;28;20358;-62
2021/07/27 12:19:13;;;;;;;;;;;26.40;90.70;;;;;;5076689;28;19913;-62
2021/07/27 12:21:39;;;;;;;;;;;26.40;89.90;;;;;;5075617;28;19923;-62
2021/07/27 12:24:05;;;;;;;;;;;26.40;90.00;;;;;;5076537;28;19912;-63
2021/07/27 12:26:34;;;;;;;;;;;26.10;89.30;;;;;;5076777;28;19920;-61
2021/07/27 12:29:00;;;;;;;;;;;26.20;90.50;;;;;;5076431;28;19916;-62
2021/07/27 12:31:26;;;;;;;;;;;26.00;90.40;;;;;;5076917;28;19913;-62
2021/07/27 12:33:52;;;;;;;;;;;26.10;90.30;;;;;;5076172;28;19920;-61
2021/07/27 12:36:18;;;;;;;;;;;26.10;90.40;;;;;;5075535;28;19924;-62
2021/07/27 12:38:44;;;;;;;;;;;26.20;90.60;;;;;;5076061;28;19936;-62
2021/07/27 12:41:10;;;;;;;;;;;26.30;90.40;;;;;;5076434;28;19919;-62
2021/07/27 12:43:36;;;;;;;;;;;26.20;90.10;;;;;;5076771;28;19979;-62
2021/07/27 12:46:02;;;;;;;;;;;26.20;90.60;;;;;;5076546;28;19924;-62
2021/07/27 12:48:28;;;;;;;;;;;26.30;90.10;;;;;;5075851;28;20404;-63
2021/07/27 12:50:54;;;;;;;;;;;26.60;90.30;;;;;;5076010;28;19915;-63
2021/07/27 12:53:22;;;;;;;;;;;26.60;90.10;;;;;;5075919;28;19958;-62
2021/07/27 12:55:48;;;;;;;;;;;26.30;90.00;;;;;;5073043;28;19909;-63
2021/07/27 12:58:14;;;;;;;;;;;26.40;89.80;;;;;;5057538;28;20396;-62
2021/07/27 13:00:40;;;;;;;;;;;26.40;89.20;;;;;;5076448;28;19919;-62
2021/07/27 13:03:05;;;;;;;;;;;26.50;90.00;;;;;;5076338;28;19920;-62
2021/07/27 13:05:32;;;;;;;;;;;26.40;89.60;;;;;;5076146;28;19916;-62
2021/07/27 13:07:58;;;;;;;;;;;26.50;89.50;;;;;;5075396;28;20034;-62
2021/07/27 13:10:24;;;;;;;;;;;26.50;88.90;;;;;;5076038;28;19912;-62
2021/07/27 13:12:50;;;;;;;;;;;26.30;89.90;;;;;;5076613;28;19917;-62
2021/07/27 13:15:16;;;;;;;;;;;26.10;90.20;;;;;;5075936;28;20361;-62
2021/07/27 13:17:42;;;;;;;;;;;26.10;90.40;;;;;;5075911;28;19912;-63
2021/07/27 13:20:08;;;;;;;;;;;26.30;88.70;;;;;;5076500;28;19919;-62
2021/07/27 13:22:34;;;;;;;;;;;26.50;89.90;;;;;;5075181;28;19912;-63
2021/07/27 13:25:00;;;;;;;;;;;26.80;89.70;;;;;;5075592;28;20274;-62
2021/07/27 13:27:26;;;;;;;;;;;26.90;86.80;;;;;;5075640;28;19912;-62
2021/07/27 13:29:52;;;;;;;;;;;27.10;86.00;;;;;;5075313;28;19921;-62
2021/07/27 13:32:18;;;;;;;;;;;27.20;87.00;;;;;;5075000;28;19913;-62
2021/07/27 13:34:44;;;;;;;;;;;27.30;85.20;;;;;;5075215;28;20270;-62
2021/07/27 13:37:11;;;;;;;;;;;27.10;85.20;;;;;;5075448;28;19917;-63
2021/07/27 13:39:37;;;;;;;;;;;27.20;85.40;;;;;;5074859;28;19920;-62
2021/07/27 13:42:03;;;;;;;;;;;26.80;85.50;;;;;;5074619;28;19978;-62
2021/07/27 13:44:29;;;;;;;;;;;26.70;85.00;;;;;;5074806;28;19913;-62
2021/07/27 13:46:55;;;;;;;;;;;26.80;86.30;;;;;;5074856;28;19935;-62
2021/07/27 13:49:20;;;;;;;;;;;26.90;85.10;;;;;;5074804;28;19928;-62
2021/07/27 13:51:46;;;;;;;;;;;26.90;85.50;;;;;;5074782;28;19920;-62
2021/07/27 13:54:12;;;;;;;;;;;27.00;87.00;;;;;;5075325;28;19912;-63
2021/07/27 13:56:38;;;;;;;;;;;27.40;84.10;;;;;;5075160;28;19912;-63
2021/07/27 13:59:04;;;;;;;;;;;27.60;84.10;;;;;;5074440;28;19908;-62
2021/07/27 14:01:30;;;;;;;;;;;27.70;83.00;;;;;;5074838;28;19909;-62
2021/07/27 14:03:56;;;;;;;;;;;27.90;83.10;;;;;;5074707;28;19913;-62
2021/07/27 14:06:22;;;;;;;;;;;27.90;81.40;;;;;;5073987;28;19916;-62
2021/07/27 14:08:48;;;;;;;;;;;28.10;82.60;;;;;;5075086;28;20289;-62
2021/07/27 14:11:14;;;;;;;;;;;28.10;82.10;;;;;;5074808;28;19919;-62
2021/07/27 14:13:39;;;;;;;;;;;28.00;80.90;;;;;;5074541;28;19918;-62
2021/07/27 14:16:05;;;;;;;;;;;28.10;80.70;;;;;;5075262;28;19913;-62
2021/07/27 14:18:31;;;;;;;;;;;28.00;80.90;;;;;;5074768;28;19908;-62
2021/07/27 14:20:57;;;;;;;;;;;27.60;81.70;;;;;;5074716;28;20320;-62
2021/07/27 14:23:23;;;;;;;;;;;27.50;82.40;;;;;;5074128;28;20289;-62
2021/07/27 14:25:49;;;;;;;;;;;27.40;82.60;;;;;;5074331;28;19912;-62
2021/07/27 14:28:15;;;;;;;;;;;27.10;83.40;;;;;;5073970;28;19909;-62
2021/07/27 14:30:41;;;;;;;;;;;26.70;84.30;;;;;;5074014;28;19908;-62
2021/07/27 14:33:07;;;;;;;;;;;26.40;85.50;;;;;;5073919;28;20358;-62
2021/07/27 14:35:33;;;;;;;;;;;26.30;86.20;;;;;;5073889;28;19913;-62
2021/07/27 14:38:03;;;;;;;;;;;26.00;86.70;;;;;;5074511;28;19923;-62